Arden, Nevada
Current Conditions -  °F | °C
As of 3:56 PM on Thursday 18 Dec 2014 (Local Time) from KLAS Reporting Station
Scattered Clouds Scattered Clouds  
Wind Chill: 54°   Ceiling: Unl
Heat Index: 54°   Visibility: 10mi
Dew Point: 38°   Wind: 0mph
Humidity: 55%   Direction: NA
Pressure: 30.12"   Gusts: NA
Location:  36.079°N, 115.211°W
Report Text: KLAS 182356Z 00000KT 10SM FEW030 SCT050 12/03 A3012 RMK AO2 SLP199 T01220033 10139 20100 53003
Loading
Personal Weather Stations






























Interactive Weather Map New forecast layout! Learn more

10-Day Weather Forecast

Advertisements
Track Severe Weather on mobile